createdAt,value
2018-12-30T00:00:00.273Z,95.98
2018-12-30T00:00:59.927Z,95.99
2018-12-30T00:01:59.943Z,96
2018-12-30T00:03:00.085Z,96.01
2018-12-30T00:03:59.667Z,96.05
2018-12-30T00:04:59.935Z,96.09
2018-12-30T00:05:59.965Z,96.09
2018-12-30T00:06:59.836Z,96.08
2018-12-30T00:07:59.923Z,96.08
2018-12-30T00:09:00.032Z,96.19
2018-12-30T00:10:00.175Z,96.2
2018-12-30T00:11:00.002Z,96.19
2018-12-30T00:11:59.697Z,96.23
2018-12-30T00:12:59.740Z,96.16
2018-12-30T00:13:59.786Z,96.15
2018-12-30T00:15:01.771Z,96.25
2018-12-30T00:16:00.477Z,96.21
2018-12-30T00:16:59.664Z,96.24
2018-12-30T00:17:59.950Z,96.28
2018-12-30T00:18:59.887Z,96.25
2018-12-30T00:19:59.714Z,96.24
2018-12-30T00:20:59.743Z,96.26
2018-12-30T00:21:59.732Z,96.31
2018-12-30T00:22:59.848Z,96.3
2018-12-30T00:23:59.997Z,96.22
2018-12-30T00:24:59.669Z,96.22
2018-12-30T00:25:59.679Z,96.33
2018-12-30T00:26:59.680Z,96.34
2018-12-30T00:27:59.974Z,96.42
2018-12-30T00:28:59.697Z,96.24
2018-12-30T00:30:00.011Z,96.24
2018-12-30T00:30:59.745Z,96.34
2018-12-30T00:31:59.740Z,96.4
2018-12-30T00:32:59.759Z,96.4
2018-12-30T00:33:59.654Z,96.45
2018-12-30T00:34:59.994Z,96.44
2018-12-30T00:35:59.918Z,96.52
2018-12-30T00:36:59.696Z,96.43
2018-12-30T00:37:59.748Z,96.49
2018-12-30T00:38:59.901Z,96.37
2018-12-30T00:39:59.805Z,96.29
2018-12-30T00:40:59.851Z,96.5
2018-12-30T00:41:59.704Z,96.41
2018-12-30T00:42:59.649Z,96.3
2018-12-30T00:43:59.636Z,96.45
2018-12-30T00:44:59.945Z,96.26
2018-12-30T00:45:59.976Z,96.32
2018-12-30T00:46:59.648Z,96.36
2018-12-30T00:47:59.589Z,96.38
2018-12-30T00:49:00.180Z,96.57
2018-12-30T00:50:00.019Z,96.34
2018-12-30T00:50:59.690Z,96.45
2018-12-30T00:51:59.850Z,96.38
2018-12-30T00:52:59.831Z,96.34
2018-12-30T00:53:59.800Z,96.33
2018-12-30T00:54:59.646Z,96.33
2018-12-30T00:55:59.975Z,96.25
2018-12-30T00:57:00.052Z,96.26
2018-12-30T00:57:59.899Z,96.31
2018-12-30T00:59:00.013Z,96.2
2018-12-30T00:59:59.989Z,96.25
2018-12-30T01:00:59.708Z,96.37
2018-12-30T01:01:59.703Z,96.23
2018-12-30T01:02:59.816Z,96.27
2018-12-30T01:04:00.085Z,96.16
2018-12-30T01:04:59.729Z,96.1
2018-12-30T01:06:00.096Z,96.12
2018-12-30T01:06:59.698Z,96.14
2018-12-30T01:07:59.904Z,96.13
2018-12-30T01:08:59.741Z,96.12
2018-12-30T01:09:59.704Z,96.08
2018-12-30T01:10:59.657Z,96
2018-12-30T01:11:59.983Z,96.03
2018-12-30T01:13:00.096Z,96.05
2018-12-30T01:13:59.712Z,96.27
2018-12-30T01:14:59.639Z,96.12
2018-12-30T01:15:59.634Z,96.12
2018-12-30T01:17:00.499Z,96.32
2018-12-30T01:17:59.863Z,96.25
2018-12-30T01:18:59.873Z,96.31
2018-12-30T01:19:59.628Z,96.38
2018-12-30T01:21:00.456Z,96.38
2018-12-30T01:21:59.793Z,96.35
2018-12-30T01:22:59.962Z,96.39
2018-12-30T01:23:59.743Z,96.4
2018-12-30T01:25:00.027Z,96.37
2018-12-30T01:25:59.989Z,96.38
2018-12-30T01:26:59.753Z,96.4
2018-12-30T01:27:59.733Z,96.36
2018-12-30T01:28:59.671Z,96.45
2018-12-30T01:29:59.875Z,96.41
2018-12-30T01:31:00.423Z,96.34
2018-12-30T01:31:59.742Z,96.41
2018-12-30T01:32:59.557Z,96.37
2018-12-30T01:34:00.189Z,96.44
2018-12-30T01:34:59.589Z,96.42
2018-12-30T01:35:59.918Z,96.37
2018-12-30T01:36:59.775Z,96.37
2018-12-30T01:37:59.733Z,96.39
2018-12-30T01:38:59.559Z,96.35
2018-12-30T01:39:59.715Z,96.33
2018-12-30T01:40:59.973Z,96.33
2018-12-30T01:41:59.936Z,96.39
2018-12-30T01:43:00.289Z,96.31
2018-12-30T01:43:59.949Z,96.34
2018-12-30T01:44:59.593Z,96.37
2018-12-30T01:45:59.583Z,96.32
2018-12-30T01:46:59.623Z,96.3
2018-12-30T01:47:59.948Z,96.32
2018-12-30T01:48:59.696Z,96.26
2018-12-30T01:50:00.386Z,96.24
2018-12-30T01:50:59.483Z,96.11
2018-12-30T01:51:59.595Z,96.15
2018-12-30T01:52:59.482Z,96.15
2018-12-30T01:53:59.622Z,96.18
2018-12-30T01:54:59.714Z,96.01
2018-12-30T01:55:59.889Z,96.17
2018-12-30T01:56:59.748Z,96.02
2018-12-30T01:57:59.512Z,96.04
2018-12-30T01:58:59.627Z,96.1
2018-12-30T01:59:59.788Z,96
2018-12-30T02:00:59.976Z,95.99
2018-12-30T02:01:59.447Z,96.06
2018-12-30T02:02:59.779Z,96.02
2018-12-30T02:03:59.615Z,95.85
2018-12-30T02:04:59.663Z,95.96
2018-12-30T02:05:59.494Z,96.01
2018-12-30T02:06:59.513Z,96.02
2018-12-30T02:07:59.616Z,95.89
2018-12-30T02:08:59.764Z,95.92
2018-12-30T02:09:59.568Z,95.91
2018-12-30T02:10:59.505Z,95.98
2018-12-30T02:11:59.610Z,95.67
2018-12-30T02:12:59.498Z,95.9
2018-12-30T02:13:59.564Z,96.03
2018-12-30T02:14:59.530Z,95.97
2018-12-30T02:15:59.692Z,95.96
2018-12-30T02:16:59.975Z,95.96
2018-12-30T02:17:59.549Z,95.83
2018-12-30T02:18:59.439Z,95.78
2018-12-30T02:19:59.675Z,95.95
2018-12-30T02:20:59.643Z,95.87
2018-12-30T02:21:59.505Z,95.79
2018-12-30T02:22:59.898Z,95.86
2018-12-30T02:23:59.580Z,95.84
2018-12-30T02:24:59.606Z,95.83
2018-12-30T02:25:59.584Z,95.9
2018-12-30T02:26:59.532Z,95.87
2018-12-30T02:27:59.479Z,96
2018-12-30T02:28:59.684Z,95.9
2018-12-30T02:30:00.203Z,95.87
2018-12-30T02:30:59.543Z,95.82
2018-12-30T02:31:59.426Z,95.98
2018-12-30T02:32:59.740Z,95.93
2018-12-30T02:33:59.570Z,95.93
2018-12-30T02:34:59.920Z,95.92
2018-12-30T02:35:59.540Z,95.9
2018-12-30T02:36:59.485Z,95.95
2018-12-30T02:37:59.562Z,96.05
2018-12-30T02:38:59.637Z,95.93
2018-12-30T02:39:59.663Z,95.91
2018-12-30T02:40:59.607Z,95.93
2018-12-30T02:41:59.678Z,96.03
2018-12-30T02:42:59.616Z,95.95
2018-12-30T02:43:59.710Z,95.96
2018-12-30T02:44:59.646Z,96.01
2018-12-30T02:45:59.485Z,95.99
2018-12-30T02:46:59.916Z,95.97
2018-12-30T02:47:59.413Z,95.97
2018-12-30T02:49:00.242Z,96.07
2018-12-30T02:49:59.647Z,96.09
2018-12-30T02:51:00.137Z,96.21
2018-12-30T02:51:59.648Z,96.15
2018-12-30T02:52:59.477Z,96.22
2018-12-30T02:53:59.533Z,96.21
2018-12-30T02:54:59.480Z,96.28
2018-12-30T02:55:59.645Z,96.23
2018-12-30T02:56:59.495Z,96.23
2018-12-30T02:57:59.554Z,96.25
2018-12-30T02:58:59.607Z,96.31
2018-12-30T02:59:59.498Z,96.36
2018-12-30T03:01:00.011Z,96.29
2018-12-30T03:01:59.818Z,96.19
2018-12-30T03:02:59.831Z,96.21
2018-12-30T03:03:59.609Z,96.05
2018-12-30T03:04:59.532Z,96.16
2018-12-30T03:05:59.622Z,96.17
2018-12-30T03:06:59.551Z,96.33
2018-12-30T03:07:59.406Z,96.18
2018-12-30T03:08:59.638Z,96.15
2018-12-30T03:09:59.464Z,96.28
2018-12-30T03:10:59.367Z,96.25
2018-12-30T03:11:59.499Z,96.24
2018-12-30T03:13:00.530Z,96.13
2018-12-30T03:13:59.594Z,95.88
2018-12-30T03:14:59.626Z,96.14
2018-12-30T03:15:59.554Z,96.25
2018-12-30T03:17:00.218Z,96.22
2018-12-30T03:17:59.556Z,96.07
2018-12-30T03:18:59.529Z,96.01
2018-12-30T03:20:00.231Z,96.2
2018-12-30T03:20:59.618Z,96.14
2018-12-30T03:21:59.786Z,96.16
2018-12-30T03:22:59.534Z,96.12
2018-12-30T03:23:59.396Z,96.26
2018-12-30T03:24:59.544Z,96.22
2018-12-30T03:25:59.577Z,96.27
2018-12-30T03:26:59.583Z,96.3
2018-12-30T03:27:59.406Z,96.29
2018-12-30T03:28:59.403Z,96.2
2018-12-30T03:29:59.385Z,96.2
2018-12-30T03:30:59.415Z,96.26
2018-12-30T03:31:59.429Z,96.21
2018-12-30T03:32:59.502Z,96.19
2018-12-30T03:33:59.654Z,96.23
2018-12-30T03:34:59.512Z,96.34
2018-12-30T03:35:59.363Z,96.29
2018-12-30T03:36:59.405Z,96.3
2018-12-30T03:37:59.631Z,96.29
2018-12-30T03:38:59.364Z,96.29
2018-12-30T03:39:59.550Z,96.24
2018-12-30T03:40:59.439Z,96.27
2018-12-30T03:41:59.407Z,96.15
2018-12-30T03:42:59.365Z,96.3
2018-12-30T03:43:59.746Z,96.24
2018-12-30T03:44:59.420Z,96.29
2018-12-30T03:45:59.440Z,96.27
2018-12-30T03:46:59.363Z,96.25
2018-12-30T03:47:59.447Z,96.28
2018-12-30T03:48:59.483Z,96.22
2018-12-30T03:49:59.389Z,96.25
2018-12-30T03:50:59.628Z,96.26
2018-12-30T03:52:07.955Z,96.23
2018-12-30T03:52:59.360Z,96.2
2018-12-30T03:53:59.342Z,96.21
2018-12-30T03:54:59.428Z,96.11
2018-12-30T03:55:59.419Z,96.08
2018-12-30T03:56:59.395Z,96.12
2018-12-30T03:57:59.373Z,96.16
2018-12-30T03:58:59.382Z,96.13
2018-12-30T03:59:59.266Z,96.29
2018-12-30T04:00:59.321Z,96.27
2018-12-30T04:01:59.385Z,96.2
2018-12-30T04:02:59.316Z,96.18
2018-12-30T04:03:59.290Z,96.18
2018-12-30T04:04:59.853Z,96.18
2018-12-30T04:05:59.327Z,96.31
2018-12-30T04:06:59.275Z,96.24
2018-12-30T04:07:59.380Z,96.3
2018-12-30T04:08:59.463Z,96.27
2018-12-30T04:09:59.284Z,96.3
2018-12-30T04:10:59.411Z,96.19
2018-12-30T04:12:00.291Z,96.23
2018-12-30T04:12:59.432Z,96.25
2018-12-30T04:13:59.514Z,96.23
2018-12-30T04:14:59.390Z,96.36
2018-12-30T04:15:59.427Z,96.16
2018-12-30T04:16:59.454Z,96.35
2018-12-30T04:17:59.509Z,96.33
2018-12-30T04:18:59.647Z,96.41
2018-12-30T04:19:59.421Z,96.39
2018-12-30T04:20:59.412Z,96.3
2018-12-30T04:21:59.555Z,96.23
2018-12-30T04:22:59.380Z,96.33
2018-12-30T04:23:59.730Z,96.36
2018-12-30T04:24:59.672Z,96.4
2018-12-30T04:25:59.367Z,96.38
2018-12-30T04:26:59.411Z,96.51
2018-12-30T04:27:59.663Z,96.47
2018-12-30T04:28:59.644Z,96.56
2018-12-30T04:29:59.374Z,96.45
2018-12-30T04:30:59.345Z,96.56
2018-12-30T04:31:59.471Z,96.63
2018-12-30T04:32:59.410Z,96.52
2018-12-30T04:33:59.509Z,96.51
2018-12-30T04:34:59.391Z,96.5
2018-12-30T04:35:59.385Z,96.62
2018-12-30T04:36:59.403Z,96.59
2018-12-30T04:37:59.445Z,96.63
2018-12-30T04:38:59.367Z,96.51
2018-12-30T04:39:59.475Z,96.61
2018-12-30T04:40:59.455Z,96.55
2018-12-30T04:41:59.445Z,96.6
2018-12-30T04:43:00.127Z,96.63
2018-12-30T04:43:59.496Z,96.67
2018-12-30T04:44:59.335Z,96.67
2018-12-30T04:45:59.575Z,96.71
2018-12-30T04:46:59.345Z,96.71
2018-12-30T04:47:59.469Z,96.8
2018-12-30T04:48:59.453Z,96.66
2018-12-30T04:49:59.338Z,96.71
2018-12-30T04:50:59.272Z,96.71
2018-12-30T04:51:59.532Z,96.83
2018-12-30T04:52:59.610Z,96.83
2018-12-30T04:53:59.401Z,96.79
2018-12-30T04:54:59.378Z,96.74
2018-12-30T04:55:59.458Z,96.7
2018-12-30T04:56:59.571Z,96.52
2018-12-30T04:57:59.343Z,96.65
2018-12-30T04:58:59.353Z,96.63
2018-12-30T04:59:59.713Z,96.47
2018-12-30T05:01:00.132Z,96.6
2018-12-30T05:01:59.463Z,96.64
2018-12-30T05:02:59.284Z,96.71
2018-12-30T05:03:59.208Z,96.59
2018-12-30T05:04:59.375Z,96.62
2018-12-30T05:05:59.409Z,96.54
2018-12-30T05:06:59.225Z,96.69
2018-12-30T05:07:59.334Z,96.68
2018-12-30T05:08:59.265Z,96.61
2018-12-30T05:09:59.348Z,96.6
2018-12-30T05:10:59.362Z,96.47
2018-12-30T05:12:00.047Z,96.82
2018-12-30T05:12:59.376Z,96.65
2018-12-30T05:13:59.348Z,96.65
2018-12-30T05:14:59.488Z,96.51
2018-12-30T05:15:59.525Z,96.68
2018-12-30T05:16:59.673Z,96.54
2018-12-30T05:17:59.694Z,96.52
2018-12-30T05:18:59.500Z,96.61
2018-12-30T05:19:59.379Z,96.54
2018-12-30T05:20:59.268Z,96.37
2018-12-30T05:21:59.389Z,96.47
2018-12-30T05:22:59.441Z,96.43
2018-12-30T05:23:59.349Z,96.39
2018-12-30T05:24:59.524Z,96.48
2018-12-30T05:25:59.299Z,96.4
2018-12-30T05:26:59.287Z,96.38
2018-12-30T05:27:59.990Z,96.29
2018-12-30T05:28:59.523Z,96.23
2018-12-30T05:29:59.329Z,96.09
2018-12-30T05:30:59.318Z,95.97
2018-12-30T05:31:59.401Z,95.77
2018-12-30T05:32:59.707Z,96
2018-12-30T05:33:59.368Z,96
2018-12-30T05:34:59.554Z,95.78
2018-12-30T05:35:59.354Z,95.93
2018-12-30T05:36:59.945Z,95.63
2018-12-30T05:37:59.237Z,95.62
2018-12-30T05:38:59.217Z,95.77
2018-12-30T05:39:59.282Z,95.74
2018-12-30T05:40:59.296Z,95.67
2018-12-30T05:41:59.200Z,95.56
2018-12-30T05:42:59.505Z,95.57
2018-12-30T05:43:59.258Z,95.48
2018-12-30T05:44:59.319Z,95.42
2018-12-30T05:45:59.182Z,95.42
2018-12-30T05:46:59.496Z,95.33
2018-12-30T05:47:59.210Z,95.4
2018-12-30T05:48:59.314Z,95.44
2018-12-30T05:49:59.252Z,95.33
2018-12-30T05:50:59.298Z,95.33
2018-12-30T05:51:59.321Z,95.16
2018-12-30T05:52:59.211Z,95.1
2018-12-30T05:53:59.178Z,95.02
2018-12-30T05:54:59.215Z,94.76
2018-12-30T05:55:59.230Z,94.84
2018-12-30T05:56:59.301Z,94.91
2018-12-30T05:58:00.563Z,94.81
2018-12-30T05:58:59.216Z,94.79
2018-12-30T05:59:59.350Z,94.71
2018-12-30T06:00:59.198Z,94.63
2018-12-30T06:01:59.279Z,94.73
2018-12-30T06:02:59.286Z,94.75
2018-12-30T06:03:59.269Z,94.64
2018-12-30T06:04:59.973Z,94.79
2018-12-30T06:05:59.539Z,94.76
2018-12-30T06:06:59.285Z,94.72
2018-12-30T06:07:59.540Z,94.65
2018-12-30T06:08:59.252Z,94.76
2018-12-30T06:09:59.389Z,94.81
2018-12-30T06:10:59.859Z,94.78
2018-12-30T06:11:59.309Z,94.81
2018-12-30T06:12:59.415Z,94.92
2018-12-30T06:13:59.227Z,94.84
2018-12-30T06:14:59.300Z,94.8
2018-12-30T06:15:59.194Z,94.87
2018-12-30T06:16:59.526Z,94.89
2018-12-30T06:17:59.175Z,94.7
2018-12-30T06:18:59.273Z,94.75
2018-12-30T06:19:59.230Z,94.62
2018-12-30T06:20:59.341Z,94.61
2018-12-30T06:21:59.180Z,94.74
2018-12-30T06:22:59.256Z,94.88
2018-12-30T06:23:59.312Z,94.92
2018-12-30T06:24:59.940Z,94.96
2018-12-30T06:25:59.466Z,94.94
2018-12-30T06:26:59.408Z,95.05
2018-12-30T06:27:59.249Z,95.04
2018-12-30T06:28:59.404Z,95.04
2018-12-30T06:29:59.134Z,95.07
2018-12-30T06:30:59.373Z,95.09
2018-12-30T06:31:59.147Z,95.15
2018-12-30T06:32:59.324Z,95.11
2018-12-30T06:33:59.218Z,95.1
2018-12-30T06:34:59.380Z,95.02
2018-12-30T06:35:59.240Z,95.05
2018-12-30T06:36:59.659Z,95.06
2018-12-30T06:37:59.346Z,95.02
2018-12-30T06:38:59.177Z,95.04
2018-12-30T06:39:59.243Z,95.02
2018-12-30T06:40:59.312Z,95.03
2018-12-30T06:41:59.318Z,95.13
2018-12-30T06:42:59.355Z,95.12
2018-12-30T06:43:59.273Z,94.97
2018-12-30T06:44:59.193Z,94.89
2018-12-30T06:45:59.244Z,94.95
2018-12-30T06:46:59.483Z,94.96
2018-12-30T06:47:59.547Z,94.94
2018-12-30T06:48:59.579Z,94.98
2018-12-30T06:49:59.549Z,94.9
2018-12-30T06:50:59.281Z,94.98
2018-12-30T06:51:59.300Z,94.94
2018-12-30T06:52:59.195Z,94.95
2018-12-30T06:53:59.283Z,94.86
2018-12-30T06:54:59.265Z,94.98
2018-12-30T06:55:59.133Z,94.96
2018-12-30T06:56:59.113Z,94.89
2018-12-30T06:57:59.137Z,94.94
2018-12-30T06:58:59.080Z,95.02
2018-12-30T06:59:59.288Z,94.91
2018-12-30T07:00:59.150Z,94.9
2018-12-30T07:01:59.154Z,94.99
2018-12-30T07:02:59.218Z,94.87
2018-12-30T07:03:59.421Z,94.92
2018-12-30T07:04:59.153Z,94.9
2018-12-30T07:05:59.286Z,94.95
2018-12-30T07:06:59.196Z,94.89
2018-12-30T07:07:59.226Z,94.99
2018-12-30T07:09:03.533Z,95
2018-12-30T07:09:59.141Z,95.04
2018-12-30T07:10:59.249Z,95.04
2018-12-30T07:11:59.239Z,95.05
2018-12-30T07:12:59.232Z,95
2018-12-30T07:13:59.162Z,95.01
2018-12-30T07:14:59.377Z,94.95
2018-12-30T07:15:59.121Z,95.04
2018-12-30T07:16:59.325Z,95.01
2018-12-30T07:17:59.270Z,94.96
2018-12-30T07:18:59.284Z,94.97
2018-12-30T07:19:59.103Z,95.07
2018-12-30T07:20:59.152Z,94.99
2018-12-30T07:21:59.649Z,95.05
2018-12-30T07:23:05.701Z,95.02
2018-12-30T07:23:59.865Z,95.13
2018-12-30T07:24:59.223Z,95.07
2018-12-30T07:25:59.275Z,95.03
2018-12-30T07:26:59.230Z,95.04
2018-12-30T07:27:59.137Z,94.95
2018-12-30T07:28:59.142Z,94.87
2018-12-30T07:29:59.061Z,94.93
2018-12-30T07:30:59.188Z,94.99
2018-12-30T07:31:59.142Z,95.05
2018-12-30T07:32:59.113Z,94.97
2018-12-30T07:33:59.214Z,95
2018-12-30T07:34:59.084Z,95.01
2018-12-30T07:35:59.132Z,94.96
2018-12-30T07:36:59.075Z,95.02
2018-12-30T07:37:59.068Z,94.85
2018-12-30T07:38:59.094Z,94.85
2018-12-30T07:39:59.096Z,94.92
2018-12-30T07:40:58.992Z,94.81
2018-12-30T07:41:59.384Z,94.77
2018-12-30T07:42:59.094Z,94.8
2018-12-30T07:43:59.066Z,94.91
2018-12-30T07:44:59.074Z,94.95
2018-12-30T07:45:59.112Z,94.98
2018-12-30T07:46:59.431Z,94.8
2018-12-30T07:47:59.282Z,94.75
2018-12-30T07:48:59.262Z,94.72
2018-12-30T07:49:59.236Z,94.72
2018-12-30T07:50:59.135Z,94.82
2018-12-30T07:51:59.064Z,94.87
2018-12-30T07:52:59.196Z,94.81
2018-12-30T07:53:59.118Z,94.82
2018-12-30T07:54:59.126Z,94.8
2018-12-30T07:55:59.080Z,94.63
2018-12-30T07:56:59.152Z,94.82
2018-12-30T07:57:59.310Z,94.64
2018-12-30T07:58:59.084Z,94.67
2018-12-30T07:59:59.225Z,94.72
2018-12-30T08:00:59.211Z,94.62
2018-12-30T08:01:59.073Z,94.67
2018-12-30T08:02:58.992Z,94.65
2018-12-30T08:03:59.308Z,94.63
2018-12-30T08:04:59.050Z,94.6
2018-12-30T08:05:59.250Z,94.57
2018-12-30T08:06:59.104Z,94.57
2018-12-30T08:07:59.079Z,94.54
2018-12-30T08:08:59.160Z,94.53
2018-12-30T08:09:59.261Z,94.56
2018-12-30T08:10:59.118Z,94.66
2018-12-30T08:11:59.526Z,94.7
2018-12-30T08:12:59.227Z,94.63
2018-12-30T08:13:59.246Z,94.69
2018-12-30T08:14:59.232Z,94.53
2018-12-30T08:15:59.123Z,94.69
2018-12-30T08:16:59.185Z,94.76
2018-12-30T08:17:59.268Z,94.86
2018-12-30T08:18:59.816Z,94.82
2018-12-30T08:19:59.150Z,94.84
2018-12-30T08:20:59.102Z,94.77
2018-12-30T08:21:59.146Z,94.9
2018-12-30T08:22:59.203Z,94.91
2018-12-30T08:23:59.960Z,94.85
2018-12-30T08:24:59.114Z,94.75
2018-12-30T08:25:59.152Z,94.78
2018-12-30T08:26:59.058Z,94.67
2018-12-30T08:27:58.986Z,94.6
2018-12-30T08:28:58.966Z,94.69
2018-12-30T08:29:59.053Z,94.39
2018-12-30T08:30:59.230Z,94.42
2018-12-30T08:31:59.063Z,94.45
2018-12-30T08:32:59.433Z,94.16
2018-12-30T08:33:58.902Z,94.1
2018-12-30T08:34:59.239Z,94.03
2018-12-30T08:35:59.196Z,93.99
2018-12-30T08:36:59.050Z,93.97
2018-12-30T08:37:59.257Z,94.06
2018-12-30T08:38:59.270Z,94.03
2018-12-30T08:39:58.978Z,94.11
2018-12-30T08:40:59.253Z,93.84
2018-12-30T08:41:59.053Z,93.91
2018-12-30T08:42:58.962Z,93.98
2018-12-30T08:43:59.035Z,93.89
2018-12-30T08:44:59.405Z,93.88
2018-12-30T08:45:59.190Z,93.9
2018-12-30T08:46:59.140Z,93.94
2018-12-30T08:47:59.053Z,93.86
2018-12-30T08:48:59.116Z,93.98
2018-12-30T08:49:59.065Z,93.88
2018-12-30T08:50:59.069Z,93.82
2018-12-30T08:51:59.406Z,93.59
2018-12-30T08:52:59.483Z,93.68
2018-12-30T08:53:59.038Z,93.55
2018-12-30T08:54:59.044Z,93.7
2018-12-30T08:55:59.199Z,93.58
2018-12-30T08:56:59.001Z,93.52
2018-12-30T08:57:59.086Z,93.45
2018-12-30T08:58:59.359Z,93.62
2018-12-30T08:59:59.080Z,93.47
2018-12-30T09:00:58.903Z,93.51
2018-12-30T09:01:59.010Z,93.52
2018-12-30T09:02:59.121Z,93.6
2018-12-30T09:03:59.395Z,93.53
2018-12-30T09:04:58.934Z,93.5
2018-12-30T09:05:59.268Z,93.47
2018-12-30T09:06:59.240Z,93.41
2018-12-30T09:07:59.195Z,93.3
2018-12-30T09:09:02.598Z,93.34
2018-12-30T09:10:01.684Z,93.34
2018-12-30T09:11:00.051Z,93.46
2018-12-30T09:11:59.006Z,93.23
2018-12-30T09:12:59.281Z,93.42
2018-12-30T09:13:59.043Z,93.41
2018-12-30T09:14:59.167Z,93.13
2018-12-30T09:15:59.359Z,92.99
2018-12-30T09:16:58.952Z,93.27
2018-12-30T09:17:58.913Z,93.17
2018-12-30T09:18:58.943Z,93.1
2018-12-30T09:19:59.043Z,93.17
2018-12-30T09:21:02.020Z,92.88
2018-12-30T09:21:58.942Z,92.8
2018-12-30T09:22:58.970Z,92.89
2018-12-30T09:24:00.454Z,93.05
2018-12-30T09:24:58.914Z,92.99
2018-12-30T09:25:59.307Z,92.73
2018-12-30T09:26:58.871Z,92.84
2018-12-30T09:28:00.150Z,92.96
2018-12-30T09:28:59.455Z,92.93
2018-12-30T09:29:58.928Z,92.73
2018-12-30T09:30:59.020Z,92.67
2018-12-30T09:31:58.895Z,92.7
2018-12-30T09:32:59.044Z,92.56
2018-12-30T09:33:58.947Z,92.66
2018-12-30T09:34:59.036Z,92.71
2018-12-30T09:35:59.225Z,92.5
2018-12-30T09:36:59.235Z,92.63
2018-12-30T09:37:59.141Z,92.62
2018-12-30T09:38:59.167Z,92.46
2018-12-30T09:39:59.105Z,92.37
2018-12-30T09:40:58.927Z,92.46
2018-12-30T09:41:59.079Z,92.34
2018-12-30T09:42:59.024Z,92.27
2018-12-30T09:43:58.949Z,92.5
2018-12-30T09:44:59.054Z,92.47
2018-12-30T09:45:58.884Z,92.33
2018-12-30T09:46:59.376Z,91.96
2018-12-30T09:47:59.011Z,92.01
2018-12-30T09:48:58.887Z,92.15
2018-12-30T09:49:59.106Z,92.2
2018-12-30T09:50:59.685Z,92.14
2018-12-30T09:51:59.341Z,92.12
2018-12-30T09:52:59.059Z,91.93
2018-12-30T09:53:58.918Z,91.82
2018-12-30T09:54:58.983Z,91.83
2018-12-30T09:55:59.061Z,91.63
2018-12-30T09:56:59.077Z,91.62
2018-12-30T09:57:58.912Z,91.68
2018-12-30T09:58:58.905Z,91.2
2018-12-30T09:59:58.911Z,91.45
2018-12-30T10:00:59.135Z,91.38
2018-12-30T10:01:58.853Z,91.25
2018-12-30T10:02:59.082Z,91.43
2018-12-30T10:03:58.986Z,91.15
2018-12-30T10:04:59.002Z,91.32
2018-12-30T10:05:59.057Z,91.07
2018-12-30T10:06:59.208Z,91.06
2018-12-30T10:07:58.918Z,91.17
2018-12-30T10:08:58.892Z,90.7
2018-12-30T10:09:59.049Z,90.96
2018-12-30T10:10:58.998Z,90.83
2018-12-30T10:11:59.644Z,91.01
2018-12-30T10:12:59.310Z,91.1
2018-12-30T10:13:58.910Z,91.06
2018-12-30T10:15:02.026Z,90.99
2018-12-30T10:15:59.015Z,90.85
2018-12-30T10:16:58.911Z,90.72
2018-12-30T10:17:58.865Z,90.82
2018-12-30T10:18:59.631Z,90.57
2018-12-30T10:19:58.848Z,90.63
2018-12-30T10:20:58.853Z,90.75
2018-12-30T10:21:59.187Z,90.74
2018-12-30T10:22:59.012Z,90.53
2018-12-30T10:23:58.912Z,90.35
2018-12-30T10:24:58.982Z,90.24
2018-12-30T10:25:59.009Z,90.37
2018-12-30T10:26:58.893Z,90.36
2018-12-30T10:27:58.935Z,90.35
2018-12-30T10:29:02.943Z,90.2
2018-12-30T10:29:58.914Z,90.48
2018-12-30T10:30:59.002Z,90.35
2018-12-30T10:31:59.057Z,90.26
2018-12-30T10:32:58.963Z,90.28
2018-12-30T10:33:58.845Z,90.24
2018-12-30T10:34:58.787Z,90.18
2018-12-30T10:35:58.843Z,90.26
2018-12-30T10:36:59.224Z,90.4
2018-12-30T10:37:59.093Z,90.42
2018-12-30T10:38:58.955Z,90.39
2018-12-30T10:39:58.796Z,90.28
2018-12-30T10:40:59.008Z,90.15
2018-12-30T10:41:59.392Z,89.97
2018-12-30T10:42:59.153Z,89.96
2018-12-30T10:43:59.083Z,90.13
2018-12-30T10:44:58.965Z,89.93
2018-12-30T10:45:58.987Z,90.16
2018-12-30T10:46:58.799Z,89.86
2018-12-30T10:47:58.781Z,89.78
2018-12-30T10:48:59.019Z,89.88
2018-12-30T10:49:58.844Z,89.79
2018-12-30T10:50:59.137Z,89.84
2018-12-30T10:51:58.811Z,89.95
2018-12-30T10:52:59.030Z,89.94
2018-12-30T10:54:00.677Z,90.03
2018-12-30T10:54:59.593Z,89.85
2018-12-30T10:55:58.986Z,89.7
2018-12-30T10:56:59.178Z,89.76
2018-12-30T10:57:58.984Z,89.77
2018-12-30T10:58:59.191Z,90.07
2018-12-30T10:59:59.112Z,89.97
2018-12-30T11:00:58.743Z,89.8
2018-12-30T11:01:59.172Z,90
2018-12-30T11:02:58.984Z,90.03
2018-12-30T11:03:59.019Z,90.14
2018-12-30T11:04:59.178Z,90.03
2018-12-30T11:05:59.031Z,89.84
2018-12-30T11:06:59.416Z,90
2018-12-30T11:07:59.222Z,89.89
2018-12-30T11:08:59.005Z,89.98
2018-12-30T11:09:58.962Z,90.06
2018-12-30T11:10:59.499Z,90.09
2018-12-30T11:11:59.128Z,89.93
2018-12-30T11:12:59.144Z,90.02
2018-12-30T11:13:59.015Z,89.58
2018-12-30T11:14:59.227Z,89.87
2018-12-30T11:15:59.443Z,89.84
2018-12-30T11:16:59.021Z,89.73
2018-12-30T11:17:58.858Z,89.8
2018-12-30T11:18:58.765Z,89.64
2018-12-30T11:19:59.047Z,89.66
2018-12-30T11:20:59.069Z,89.81
2018-12-30T11:21:58.939Z,89.73
2018-12-30T11:22:59.056Z,89.46
2018-12-30T11:23:59.603Z,89.52
2018-12-30T11:24:59.281Z,89.67
2018-12-30T11:25:59.581Z,89.99
2018-12-30T11:26:58.942Z,89.61
2018-12-30T11:27:59.303Z,89.35
2018-12-30T11:28:58.813Z,89.57
2018-12-30T11:29:59.022Z,89.57
2018-12-30T11:30:59.127Z,89.75
2018-12-30T11:31:58.957Z,89.85
2018-12-30T11:32:58.865Z,89.82
2018-12-30T11:33:58.762Z,89.84
2018-12-30T11:34:58.779Z,89.78
2018-12-30T11:35:59.204Z,89.72
2018-12-30T11:36:58.984Z,89.68
2018-12-30T11:37:58.959Z,89.6
2018-12-30T11:38:59.162Z,89.34
2018-12-30T11:39:58.863Z,89.33
2018-12-30T11:40:58.919Z,89.41
2018-12-30T11:41:58.968Z,89.56
2018-12-30T11:42:58.987Z,89.46
2018-12-30T11:43:58.905Z,89.39
2018-12-30T11:44:59.724Z,89.1
2018-12-30T11:45:58.950Z,88.98
2018-12-30T11:46:58.979Z,89.13
2018-12-30T11:47:58.710Z,89.1
2018-12-30T11:48:58.839Z,89.05
2018-12-30T11:49:58.747Z,89.11
2018-12-30T11:50:58.789Z,89.3
2018-12-30T11:51:58.707Z,89.1
2018-12-30T11:52:59.060Z,88.92
2018-12-30T11:53:59.143Z,88.85
2018-12-30T11:54:58.820Z,88.94
2018-12-30T11:55:58.862Z,88.97
2018-12-30T11:56:59.055Z,89.13
2018-12-30T11:57:58.725Z,89.04
2018-12-30T11:58:59.221Z,88.94
2018-12-30T11:59:59.528Z,89.07
2018-12-30T12:00:58.767Z,89.13
2018-12-30T12:01:58.929Z,89.01
2018-12-30T12:02:58.881Z,89.32
2018-12-30T12:03:59.298Z,89.29
2018-12-30T12:04:59.011Z,89.49
2018-12-30T12:05:59.069Z,89.46
2018-12-30T12:06:58.926Z,89.1
2018-12-30T12:07:59.034Z,89.23
2018-12-30T12:08:58.715Z,88.87
2018-12-30T12:09:58.669Z,88.81
2018-12-30T12:10:58.758Z,89.02
2018-12-30T12:11:58.954Z,89.31
2018-12-30T12:12:59.132Z,89.11
2018-12-30T12:13:58.937Z,89.08
2018-12-30T12:14:58.710Z,89.08
2018-12-30T12:15:58.934Z,88.87
2018-12-30T12:16:58.708Z,89.23
2018-12-30T12:17:58.984Z,89.11
2018-12-30T12:18:58.720Z,89.04
2018-12-30T12:19:58.851Z,89.22
2018-12-30T12:20:58.951Z,89.33
2018-12-30T12:21:58.769Z,89.33
2018-12-30T12:22:58.764Z,89.37
2018-12-30T12:23:59.105Z,89.22
2018-12-30T12:24:58.791Z,89.19
2018-12-30T12:26:01.659Z,89.18
2018-12-30T12:26:58.947Z,89.08
2018-12-30T12:27:58.749Z,89
2018-12-30T12:28:58.933Z,88.9
2018-12-30T12:29:58.816Z,88.94
2018-12-30T12:30:58.974Z,88.67
2018-12-30T12:31:58.747Z,88.69
2018-12-30T12:32:59.093Z,88.71
2018-12-30T12:33:58.750Z,88.63
2018-12-30T12:34:58.697Z,88.73
2018-12-30T12:35:58.702Z,88.85
2018-12-30T12:36:58.708Z,88.85
2018-12-30T12:37:58.934Z,88.57
2018-12-30T12:38:59.521Z,88.91
2018-12-30T12:39:58.772Z,88.56
2018-12-30T12:40:58.967Z,88.57
2018-12-30T12:41:58.672Z,88.61
2018-12-30T12:42:59.377Z,88.75
2018-12-30T12:43:59.236Z,88.74
2018-12-30T12:44:58.666Z,88.75
2018-12-30T12:45:58.918Z,88.83
2018-12-30T12:46:58.905Z,88.6
2018-12-30T12:47:59.046Z,88.76
2018-12-30T12:48:59.013Z,88.84
2018-12-30T12:49:59.091Z,88.71
2018-12-30T12:50:58.698Z,88.58
2018-12-30T12:51:58.740Z,88.5
2018-12-30T12:52:58.742Z,88.42
2018-12-30T12:53:58.691Z,88.5
2018-12-30T12:54:59.028Z,88.73
2018-12-30T12:55:58.680Z,88.66